Time;durP1;ratioP1;P1;durP2;ratioP2;P2;SDS_P1;SDS_P2;PMS_P1;PMS_P2;Temp;Humidity;BMP_temperature;BMP_pressure;BME280_temperature;BME280_humidity;BME280_pressure;Samples;Min_cycle;Max_cycle;Signal;HPM_P1;HPM_P2
2022/12/17 13:07:47;;;;;;;;;;;;;;;17.26;50.31;100783.66;5096664;28;1091;-48
2022/12/17 13:10:20;;;;;;;;;;;;;;;17.79;50.55;100782.38;5096989;28;1030;-51
2022/12/17 13:12:46;;;;;;;;;;;;;;;17.26;49.71;100791.06;5096218;28;1107;-51
2022/12/17 13:15:15;;;;;;;;;;;;;;;17.03;48.84;100792.47;5096125;28;1106;-52
2022/12/17 13:18:16;;;;;;;;;;;;;;;17.65;50.68;100800.59;5089623;28;2521;-51
2022/12/17 13:20:42;;;;;;;;;;;;;;;17.41;50.38;100802.03;5055071;28;1232;-49
2022/12/17 13:23:10;;;;;;;;;;;;;;;17.06;49.58;100813.91;5099093;28;1063;-49
2022/12/17 13:25:35;;;;;;;;;;;;;;;17.26;49.65;100822.13;5096837;28;1046;-49
2022/12/17 13:28:01;;;;;;;;;;;;;;;17.51;50.31;100817.66;5096863;28;1174;-51
2022/12/17 13:30:33;;;;;;;;;;;;;;;17.13;49.57;100825.44;5097122;28;1174;-49
2022/12/17 13:33:04;;;;;;;;;;;;;;;16.91;48.67;100842.19;5095796;28;1027;-49
2022/12/17 13:35:32;;;;;;;;;;;;;;;17.83;49.51;100840.41;5095013;28;953;-49
2022/12/17 13:38:04;;;;;;;;;;;;;;;17.15;49.63;100850.69;5096127;28;1905;-45
2022/12/17 13:40:33;;;;;;;;;;;;;;;17.99;49.96;100860.47;5096924;28;1041;-53
2022/12/17 13:42:58;;;;;;;;;;;;;;;18.04;50.27;100858.50;5096256;28;1194;-50
2022/12/17 13:45:24;;;;;;;;;;;;;;;17.33;50.13;100867.72;5097085;28;1150;-50
2022/12/17 13:47:56;;;;;;;;;;;;;;;17.07;49.09;100874.06;5095066;28;885;-49
2022/12/17 13:50:22;;;;;;;;;;;;;;;16.95;48.91;100883.69;5096900;28;1212;-47
2022/12/17 13:52:48;;;;;;;;;;;;;;;18.16;50.05;100887.63;5096552;28;1046;-49
2022/12/17 13:55:20;;;;;;;;;;;;;;;17.30;50.33;100893.03;5096676;28;1129;-50
2022/12/17 13:57:46;;;;;;;;;;;;;;;17.04;49.22;100896.59;5096349;28;1906;-53
2022/12/17 14:00:18;;;;;;;;;;;;;;;17.83;50.21;100922.94;5096407;28;1069;-49
2022/12/17 14:02:44;;;;;;;;;;;;;;;17.07;50.71;100929.00;5097272;28;1122;-51
2022/12/17 14:05:20;;;;;;;;;;;;;;;16.97;49.17;100934.50;5096549;28;1027;-54
2022/12/17 14:07:46;;;;;;;;;;;;;;;17.58;50.32;100938.34;5096157;28;1129;-46
2022/12/17 14:10:14;;;;;;;;;;;;;;;17.06;49.89;100948.53;5095746;28;1050;-51
2022/12/17 14:12:40;;;;;;;;;;;;;;;16.97;48.57;100940.00;5095652;28;1222;-51
2022/12/17 14:15:07;;;;;;;;;;;;;;;17.89;49.79;100938.31;5095196;28;1186;-53
2022/12/17 14:17:45;;;;;;;;;;;;;;;17.23;49.84;100943.56;5094664;28;1974;-51
2022/12/17 14:20:11;;;;;;;;;;;;;;;16.99;49.94;100932.28;5094913;28;1097;-47
2022/12/17 14:22:37;;;;;;;;;;;;;;;17.54;50.31;100920.75;5096038;28;1034;-46
2022/12/17 14:25:03;;;;;;;;;;;;;;;17.12;49.44;100927.38;5094632;28;1035;-49
2022/12/17 14:27:33;;;;;;;;;;;;;;;17.28;49.86;100915.28;5093634;28;2891;-49
2022/12/17 14:29:58;;;;;;;;;;;;;;;17.87;50.03;100902.84;5091929;28;1054;-50
2022/12/17 14:32:34;;;;;;;;;;;;;;;17.27;49.81;100914.44;5086779;28;1147;-47
2022/12/17 14:35:00;;;;;;;;;;;;;;;16.97;48.75;100907.03;5091701;28;1098;-49
2022/12/17 14:37:25;;;;;;;;;;;;;;;17.55;50.09;100911.44;5095121;28;1909;-48
2022/12/17 14:39:53;;;;;;;;;;;;;;;17.30;50.09;100921.31;5096580;28;1178;-47
2022/12/17 14:42:28;;;;;;;;;;;;;;;16.99;49.30;100910.31;5095286;28;1040;-44
2022/12/17 14:45:00;;;;;;;;;;;;;;;16.85;48.32;100898.19;5095453;28;1036;-47
2022/12/17 14:47:25;;;;;;;;;;;;;;;17.95;49.62;100898.72;5095451;28;1093;-50
2022/12/17 14:49:53;;;;;;;;;;;;;;;17.18;49.77;100896.88;5096582;28;1146;-52
2022/12/17 14:52:25;;;;;;;;;;;;;;;17.33;50.13;100889.72;5095792;28;1082;-50
2022/12/17 14:54:50;;;;;;;;;;;;;;;17.73;50.25;100886.09;5096008;28;1125;-52
2022/12/17 14:57:17;;;;;;;;;;;;;;;17.12;49.73;100897.97;5095911;28;1011;-48
2022/12/17 14:59:43;;;;;;;;;;;;;;;17.06;49.89;100886.16;5089418;28;2686;-49
2022/12/17 15:02:24;;;;;;;;;;;;;;;17.57;50.35;100882.56;5095539;28;1003;-49
2022/12/17 15:04:50;;;;;;;;;;;;;;;17.21;50.54;100881.78;5095853;28;1462;-46
2022/12/17 15:07:19;;;;;;;;;;;;;;;18.84;49.04;100898.00;5095597;28;1118;-48
2022/12/17 15:09:44;;;;;;;;;;;;;;;17.62;50.30;100895.47;5095619;28;1055;-48
2022/12/17 15:12:10;;;;;;;;;;;;;;;17.18;49.54;100907.88;5095550;28;1104;-50
2022/12/17 15:14:35;;;;;;;;;;;;;;;17.28;49.40;100887.81;5096027;28;1117;-50
2022/12/17 15:17:01;;;;;;;;;;;;;;;17.52;50.48;100890.81;5095428;28;1236;-49
2022/12/17 15:19:26;;;;;;;;;;;;;;;17.07;49.73;100896.03;5095819;28;1987;-49
2022/12/17 15:21:52;;;;;;;;;;;;;;;16.97;48.43;100890.56;5096079;28;1094;-49
2022/12/17 15:24:18;;;;;;;;;;;;;;;17.86;49.60;100900.38;5095194;28;902;-49
2022/12/17 15:26:43;;;;;;;;;;;;;;;17.23;49.67;100907.03;5095631;28;1099;-54
2022/12/17 15:29:09;;;;;;;;;;;;;;;18.54;49.85;100910.03;5091846;28;2648;-49
2022/12/17 15:31:34;;;;;;;;;;;;;;;18.08;50.79;100903.63;5096054;28;1038;-50
2022/12/17 15:34:00;;;;;;;;;;;;;;;17.45;50.13;100901.25;5095358;28;1097;-54
2022/12/17 15:36:25;;;;;;;;;;;;;;;17.17;49.10;100906.22;5095503;28;1118;-53
2022/12/17 15:38:51;;;;;;;;;;;;;;;17.09;48.29;100907.56;5095684;28;1982;-52
2022/12/17 15:44:00;;;;;;;;;;;;;;;17.35;50.23;100906.75;5099221;28;1050;-52
2022/12/17 15:46:26;;;;;;;;;;;;;;;17.21;48.68;100912.00;5100111;28;1077;-51
2022/12/17 15:48:51;;;;;;;;;;;;;;;17.01;48.10;100913.63;5099424;28;1065;-48
2022/12/17 15:51:19;;;;;;;;;;;;;;;17.64;50.09;100909.75;5099893;28;1118;-49
2022/12/17 15:53:46;;;;;;;;;;;;;;;17.07;49.41;100909.78;5099342;28;1047;-49
2022/12/17 15:56:24;;;;;;;;;;;;;;;16.87;48.81;100915.22;5099479;28;1484;-49
2022/12/17 15:58:50;;;;;;;;;;;;;;;16.76;47.79;100923.44;5089128;28;2323;-48
2022/12/17 16:01:15;;;;;;;;;;;;;;;17.54;49.65;100909.78;5098845;28;982;-48
2022/12/17 16:03:41;;;;;;;;;;;;;;;17.05;48.87;100920.19;5099168;28;1169;-49
2022/12/17 16:06:06;;;;;;;;;;;;;;;17.02;49.33;100918.00;5098946;28;1149;-49
2022/12/17 16:08:32;;;;;;;;;;;;;;;17.54;50.03;100915.25;5098816;28;1110;-46
2022/12/17 16:10:57;;;;;;;;;;;;;;;16.99;49.54;100932.28;5098760;28;1126;-49
2022/12/17 16:13:22;;;;;;;;;;;;;;;16.93;48.38;100942.44;5098850;28;1077;-45
2022/12/17 16:15:55;;;;;;;;;;;;;;;17.93;49.46;100934.75;5098674;28;1106;-47
2022/12/17 16:18:22;;;;;;;;;;;;;;;17.23;49.90;100937.28;5098331;28;1972;-49
2022/12/17 16:20:48;;;;;;;;;;;;;;;16.90;49.01;100951.25;5098111;28;1185;-49
2022/12/17 16:23:13;;;;;;;;;;;;;;;16.89;48.27;100959.75;5098143;28;1116;-48
2022/12/17 16:25:39;;;;;;;;;;;;;;;17.28;49.82;100954.59;5098387;28;1113;-49
2022/12/17 16:28:04;;;;;;;;;;;;;;;17.00;48.76;100953.19;5094913;28;2354;-51
2022/12/17 16:30:29;;;;;;;;;;;;;;;17.61;49.70;100954.31;5098875;28;1079;-49
2022/12/17 16:32:56;;;;;;;;;;;;;;;17.04;49.87;100965.28;5098278;28;1043;-48
2022/12/17 16:35:22;;;;;;;;;;;;;;;17.39;50.02;100976.56;5097961;28;1142;-51
2022/12/17 16:37:48;;;;;;;;;;;;;;;17.98;49.98;100969.69;5097454;28;1922;-47
2022/12/17 16:40:13;;;;;;;;;;;;;;;17.25;49.77;100979.03;5098353;28;1122;-47
2022/12/17 16:42:39;;;;;;;;;;;;;;;17.45;49.93;100984.56;5098585;28;1142;-52
2022/12/17 16:45:05;;;;;;;;;;;;;;;17.43;50.27;100986.75;5098075;28;1039;-50
2022/12/17 16:47:30;;;;;;;;;;;;;;;17.09;49.44;100992.75;5097664;28;1023;-51
2022/12/17 16:49:56;;;;;;;;;;;;;;;17.58;50.16;100987.84;5088538;28;1070;-50
2022/12/17 16:52:21;;;;;;;;;;;;;;;17.20;50.19;100987.28;5093156;28;1031;-52
2022/12/17 16:54:47;;;;;;;;;;;;;;;17.01;48.83;100990.56;5098078;28;1102;-48
2022/12/17 16:57:12;;;;;;;;;;;;;;;18.07;49.26;100990.03;5097789;28;1038;-52
2022/12/17 16:59:38;;;;;;;;;;;;;;;17.17;49.80;100996.09;5087539;28;2460;-51
2022/12/17 17:02:03;;;;;;;;;;;;;;;17.60;49.85;101002.97;5098016;28;987;-46
2022/12/17 17:04:29;;;;;;;;;;;;;;;17.66;50.52;101014.81;5097788;28;1098;-49
2022/12/17 17:06:54;;;;;;;;;;;;;;;17.14;49.50;101021.31;5097937;28;1047;-49
2022/12/17 17:09:20;;;;;;;;;;;;;;;17.07;48.61;101016.94;5097534;28;1161;-49
2022/12/17 17:11:46;;;;;;;;;;;;;;;17.95;49.92;101017.84;5097045;28;1128;-51
2022/12/17 17:14:11;;;;;;;;;;;;;;;17.48;49.95;101032.66;5096997;28;1110;-51
2022/12/17 17:16:37;;;;;;;;;;;;;;;17.47;50.35;101042.00;5097555;28;1112;-51
2022/12/17 17:19:02;;;;;;;;;;;;;;;18.28;49.64;101039.53;5097344;28;1979;-52
2022/12/17 17:21:29;;;;;;;;;;;;;;;17.44;49.92;101048.88;5097282;28;1126;-51
2022/12/17 17:23:58;;;;;;;;;;;;;;;17.09;49.02;101046.88;5096922;28;1003;-52
2022/12/17 17:26:24;;;;;;;;;;;;;;;17.69;49.78;101051.94;5097667;28;1107;-50
2022/12/17 17:28:50;;;;;;;;;;;;;;;17.40;50.13;101057.94;5093860;28;2508;-52
2022/12/17 17:31:16;;;;;;;;;;;;;;;17.09;48.76;101050.44;5096584;28;1019;-49
2022/12/17 17:33:42;;;;;;;;;;;;;;;18.04;49.84;101051.13;5097086;28;1026;-53
2022/12/17 17:36:08;;;;;;;;;;;;;;;17.19;49.82;101040.59;5096989;28;1070;-51
2022/12/17 17:38:34;;;;;;;;;;;;;;;17.39;50.24;101051.63;5087950;28;1906;-54
2022/12/17 17:41:00;;;;;;;;;;;;;;;17.51;50.01;101040.38;5092532;28;1003;-54
2022/12/17 17:43:25;;;;;;;;;;;;;;;17.10;49.36;101045.78;5097257;28;1205;-53
2022/12/17 17:45:52;;;;;;;;;;;;;;;17.62;49.87;101043.94;5096883;28;1003;-51
2022/12/17 17:48:17;;;;;;;;;;;;;;;17.75;50.12;101042.56;5096730;28;1087;-54
2022/12/17 17:50:43;;;;;;;;;;;;;;;17.22;49.52;101045.53;5096722;28;1164;-51
2022/12/17 17:53:08;;;;;;;;;;;;;;;18.24;49.77;101049.44;5097143;28;1090;-52
2022/12/17 17:55:34;;;;;;;;;;;;;;;17.41;50.29;101049.41;5096684;28;1209;-53
2022/12/17 17:57:59;;;;;;;;;;;;;;;17.10;48.97;101043.84;5091828;28;1914;-52
2022/12/17 18:00:25;;;;;;;;;;;;;;;17.72;49.98;101048.63;5092180;28;1036;-51
2022/12/17 18:02:50;;;;;;;;;;;;;;;17.13;49.48;101061.72;5096606;28;1134;-53
2022/12/17 18:05:16;;;;;;;;;;;;;;;18.36;49.41;101062.94;5095963;28;1070;-54
2022/12/17 18:07:41;;;;;;;;;;;;;;;17.93;49.92;101068.75;5096552;28;1102;-51
2022/12/17 18:10:07;;;;;;;;;;;;;;;17.38;49.18;101071.97;5096243;28;1058;-46
2022/12/17 18:15:16;;;;;;;;;;;;;;;17.72;50.22;101076.94;5096124;28;1058;-51
2022/12/17 18:17:45;;;;;;;;;;;;;;;17.30;49.33;101064.25;5096267;28;1906;-52
2022/12/17 18:20:11;;;;;;;;;;;;;;;18.39;49.81;101087.13;5095862;28;1090;-53
2022/12/17 18:22:36;;;;;;;;;;;;;;;17.61;50.26;101081.63;5097014;28;1126;-54
2022/12/17 18:25:02;;;;;;;;;;;;;;;17.27;49.08;101075.78;5095749;28;1042;-51
2022/12/17 18:27:27;;;;;;;;;;;;;;;17.10;48.18;101078.75;5094931;28;1855;-51
2022/12/17 18:29:52;;;;;;;;;;;;;;;18.04;49.65;101084.16;5093322;28;1010;-54
2022/12/17 18:32:18;;;;;;;;;;;;;;;17.30;49.59;101091.72;5096102;28;1038;-52
2022/12/17 18:34:43;;;;;;;;;;;;;;;17.12;48.52;101092.22;5096398;28;1220;-51
2022/12/17 18:37:09;;;;;;;;;;;;;;;17.02;48.35;101093.00;5096109;28;1195;-52
2022/12/17 18:39:34;;;;;;;;;;;;;;;17.52;49.51;101087.94;5096024;28;1909;-53
2022/12/17 18:44:43;;;;;;;;;;;;;;;17.71;49.31;101094.56;5096328;28;1129;-51
2022/12/17 18:47:09;;;;;;;;;;;;;;;17.41;49.74;101096.16;5096299;28;1217;-52
2022/12/17 18:49:35;;;;;;;;;;;;;;;17.27;49.94;101098.59;5095544;28;1059;-49
2022/12/17 18:52:00;;;;;;;;;;;;;;;18.53;49.34;101110.22;5096284;28;999;-48
2022/12/17 18:54:26;;;;;;;;;;;;;;;17.48;50.10;101103.34;5095965;28;1150;-51
2022/12/17 18:56:52;;;;;;;;;;;;;;;17.14;49.28;101103.75;5096168;28;1110;-53
2022/12/17 18:59:19;;;;;;;;;;;;;;;18.26;49.85;101097.63;5085620;28;1913;-51
2022/12/17 19:01:44;;;;;;;;;;;;;;;17.42;49.82;101089.56;5095510;28;883;-51
2022/12/17 19:04:10;;;;;;;;;;;;;;;17.27;48.56;101089.53;5096301;28;1111;-50
2022/12/17 19:06:36;;;;;;;;;;;;;;;17.47;49.35;101087.94;5096218;28;1102;-53
2022/12/17 19:09:02;;;;;;;;;;;;;;;17.90;50.05;101085.78;5095573;28;1023;-50
2022/12/17 19:11:30;;;;;;;;;;;;;;;17.34;49.27;101089.28;5095908;28;1046;-50
2022/12/17 19:13:55;;;;;;;;;;;;;;;17.04;48.47;101113.63;5095525;28;1065;-49
2022/12/17 19:16:21;;;;;;;;;;;;;;;18.47;49.63;101114.94;5098858;28;1150;-50
2022/12/17 19:18:54;;;;;;;;;;;;;;;17.54;49.89;101135.22;5100136;28;1987;-51
2022/12/17 19:21:19;;;;;;;;;;;;;;;17.42;49.58;101133.56;5099496;28;1057;-47
2022/12/17 19:23:45;;;;;;;;;;;;;;;17.98;50.10;101143.03;5086491;28;939;-50
2022/12/17 19:26:15;;;;;;;;;;;;;;;17.32;49.77;101149.19;5099138;28;924;-50
2022/12/17 19:28:40;;;;;;;;;;;;;;;18.82;49.06;101148.19;5096347;28;2625;-49
2022/12/17 19:31:06;;;;;;;;;;;;;;;17.79;50.03;101151.81;5099795;28;1114;-47
2022/12/17 19:33:32;;;;;;;;;;;;;;;17.36;49.47;101156.63;5099795;28;1506;-46
2022/12/17 19:35:59;;;;;;;;;;;;;;;17.20;48.41;101163.16;5099825;28;1054;-48
2022/12/17 19:38:24;;;;;;;;;;;;;;;18.50;49.71;101176.06;5098795;28;1972;-47
2022/12/17 19:40:51;;;;;;;;;;;;;;;17.54;49.93;101168.22;5099433;28;1110;-45
2022/12/17 19:43:16;;;;;;;;;;;;;;;17.16;49.04;101173.03;5099831;28;1089;-47
2022/12/17 19:45:42;;;;;;;;;;;;;;;17.05;48.10;101167.47;5099765;28;1051;-48
2022/12/17 19:48:08;;;;;;;;;;;;;;;18.24;49.39;101165.91;5099663;28;1150;-48
2022/12/17 19:50:34;;;;;;;;;;;;;;;17.47;49.53;101157.47;5098909;28;847;-51
2022/12/17 19:52:59;;;;;;;;;;;;;;;17.07;48.64;101146.06;5099298;28;999;-51
2022/12/17 19:55:25;;;;;;;;;;;;;;;17.92;49.56;101150.47;5098212;28;1139;-50
2022/12/17 19:57:50;;;;;;;;;;;;;;;17.24;49.48;101158.78;5094509;28;2206;-51
2022/12/17 20:00:16;;;;;;;;;;;;;;;17.56;49.28;101161.34;5092392;28;1042;-50
2022/12/17 20:02:41;;;;;;;;;;;;;;;17.99;49.88;101169.44;5098149;28;964;-49
2022/12/17 20:05:07;;;;;;;;;;;;;;;17.36;49.27;101166.78;5098943;28;1122;-46
2022/12/17 20:07:33;;;;;;;;;;;;;;;17.08;48.56;101168.88;5099117;28;1118;-49
2022/12/17 20:09:58;;;;;;;;;;;;;;;18.08;49.48;101181.56;5098332;28;1019;-50
2022/12/17 20:12:24;;;;;;;;;;;;;;;17.29;49.80;101183.53;5099173;28;1122;-51
2022/12/17 20:14:49;;;;;;;;;;;;;;;17.11;48.36;101184.84;5098687;28;964;-50
2022/12/17 20:17:14;;;;;;;;;;;;;;;17.90;49.68;101187.56;5098621;28;1122;-51
2022/12/17 20:19:41;;;;;;;;;;;;;;;17.44;49.76;101196.50;5098403;28;1991;-46
2022/12/17 20:22:06;;;;;;;;;;;;;;;17.10;49.04;101186.75;5098420;28;1130;-49
2022/12/17 20:24:32;;;;;;;;;;;;;;;17.31;49.43;101200.59;5098159;28;1149;-47
2022/12/17 20:26:57;;;;;;;;;;;;;;;17.69;49.55;101193.00;5097405;28;1118;-50
2022/12/17 20:29:23;;;;;;;;;;;;;;;17.18;49.02;101192.81;5094286;28;2491;-47
2022/12/17 20:31:49;;;;;;;;;;;;;;;17.67;49.84;101208.13;5098604;28;1070;-48
2022/12/17 20:34:14;;;;;;;;;;;;;;;17.34;49.62;101222.03;5098200;28;1128;-49
2022/12/17 20:36:40;;;;;;;;;;;;;;;18.28;49.42;101218.47;5098361;28;1109;-48
2022/12/17 20:39:06;;;;;;;;;;;;;;;18.76;49.05;101226.44;5098404;28;1976;-49
2022/12/17 20:41:31;;;;;;;;;;;;;;;17.61;49.88;101234.78;5098064;28;1166;-50
2022/12/17 20:43:57;;;;;;;;;;;;;;;17.34;49.09;101227.53;5097938;28;1057;-50
2022/12/17 20:46:23;;;;;;;;;;;;;;;18.12;50.04;101245.16;5097919;28;1146;-49
2022/12/17 20:48:48;;;;;;;;;;;;;;;17.49;49.48;101246.03;5098389;28;1158;-50
2022/12/17 20:51:25;;;;;;;;;;;;;;;18.05;49.76;101237.16;5097867;28;1205;-47
2022/12/17 20:53:51;;;;;;;;;;;;;;;18.14;50.20;101237.44;5097443;28;995;-46
2022/12/17 20:56:18;;;;;;;;;;;;;;;17.63;49.34;101249.09;5098069;28;1049;-46
2022/12/17 20:58:43;;;;;;;;;;;;;;;17.20;48.95;101243.69;5086829;28;1964;-51
2022/12/17 21:01:10;;;;;;;;;;;;;;;17.26;48.67;101245.38;5097579;28;1007;-52
2022/12/17 21:03:35;;;;;;;;;;;;;;;18.11;50.01;101249.81;5097913;28;987;-53
2022/12/17 21:06:08;;;;;;;;;;;;;;;17.37;49.54;101262.72;5098117;28;1011;-52
2022/12/17 21:08:33;;;;;;;;;;;;;;;17.17;48.72;101257.94;5096417;28;1146;-53
2022/12/17 21:10:59;;;;;;;;;;;;;;;17.67;49.08;101269.47;5097604;28;1066;-53
2022/12/17 21:13:30;;;;;;;;;;;;;;;17.64;49.56;101275.50;5096892;28;1051;-54
2022/12/17 21:16:00;;;;;;;;;;;;;;;17.22;49.02;101273.63;5097892;28;1019;-54
2022/12/17 21:18:26;;;;;;;;;;;;;;;17.02;48.73;101286.16;5097650;28;1914;-54
2022/12/17 21:20:57;;;;;;;;;;;;;;;18.29;49.12;101288.94;5096992;28;1114;-53
2022/12/17 21:23:23;;;;;;;;;;;;;;;17.35;49.87;101288.81;5097489;28;1078;-53
2022/12/17 21:25:55;;;;;;;;;;;;;;;17.88;50.01;101289.63;5097249;28;1171;-54
2022/12/17 21:28:20;;;;;;;;;;;;;;;17.76;49.88;101300.03;5093898;28;2321;-49
2022/12/17 21:30:46;;;;;;;;;;;;;;;17.30;49.04;101288.81;5097410;28;1026;-50
2022/12/17 21:33:12;;;;;;;;;;;;;;;17.10;48.75;101302.16;5096703;28;1082;-50
2022/12/17 21:35:37;;;;;;;;;;;;;;;17.52;49.74;101305.97;5097310;28;1046;-48
2022/12/17 21:38:03;;;;;;;;;;;;;;;17.89;49.74;101305.06;5096008;28;1901;-50
2022/12/17 21:40:28;;;;;;;;;;;;;;;19.30;48.79;101305.75;5096646;28;1007;-49
2022/12/17 21:43:02;;;;;;;;;;;;;;;17.94;50.07;101298.75;5096514;28;1003;-54
2022/12/17 21:45:36;;;;;;;;;;;;;;;17.61;49.12;101292.53;5096555;28;1091;-51
2022/12/17 21:48:02;;;;;;;;;;;;;;;17.28;48.26;101302.81;5097147;28;1082;-50
2022/12/17 21:50:27;;;;;;;;;;;;;;;18.19;49.58;101302.66;5096774;28;970;-52
2022/12/17 21:52:53;;;;;;;;;;;;;;;17.44;49.61;101304.53;5096585;28;1057;-49
2022/12/17 21:55:18;;;;;;;;;;;;;;;17.12;48.71;101299.13;5096681;28;1076;-52
2022/12/17 21:57:43;;;;;;;;;;;;;;;18.18;49.15;101314.78;5093638;28;2329;-46
2022/12/17 22:00:09;;;;;;;;;;;;;;;17.44;49.02;101317.47;5088867;28;1123;-47
2022/12/17 22:02:34;;;;;;;;;;;;;;;17.16;48.34;101333.22;5096202;28;1102;-48
2022/12/17 22:05:00;;;;;;;;;;;;;;;18.07;49.21;101313.94;5096662;28;1173;-51
2022/12/17 22:07:25;;;;;;;;;;;;;;;17.54;49.51;101324.94;5096278;28;1006;-49
2022/12/17 22:09:53;;;;;;;;;;;;;;;17.09;49.18;101322.47;5096498;28;1026;-49
2022/12/17 22:15:03;;;;;;;;;;;;;;;17.31;49.85;101313.28;5083894;28;1042;-51
2022/12/17 22:17:29;;;;;;;;;;;;;;;17.14;49.42;101329.09;5093463;28;1385;-49
2022/12/17 22:19:54;;;;;;;;;;;;;;;18.32;49.41;101315.91;5096594;28;2274;-48
2022/12/17 22:22:20;;;;;;;;;;;;;;;17.37;49.80;101322.38;5096144;28;990;-48
2022/12/17 22:24:45;;;;;;;;;;;;;;;17.09;48.61;101311.47;5096512;28;1114;-51
2022/12/17 22:27:11;;;;;;;;;;;;;;;17.81;49.51;101319.31;5096110;28;855;-51
2022/12/17 22:35:04;;;;;;;;;;;;;;;17.02;47.95;101332.03;5095066;28;1027;-50
2022/12/17 22:37:30;;;;;;;;;;;;;;;18.11;48.89;101337.88;5096050;28;1158;-51
2022/12/17 22:39:55;;;;;;;;;;;;;;;17.31;49.10;101331.72;5095911;28;1914;-49
2022/12/17 22:45:05;;;;;;;;;;;;;;;17.82;49.79;101345.72;5095449;28;1126;-50
2022/12/17 22:47:30;;;;;;;;;;;;;;;17.30;49.04;101355.59;5096059;28;1165;-50
2022/12/17 22:49:56;;;;;;;;;;;;;;;17.40;49.44;101350.19;5093107;28;990;-52
2022/12/17 22:52:21;;;;;;;;;;;;;;;17.60;49.71;101354.16;5086208;28;1082;-49
2022/12/17 22:54:46;;;;;;;;;;;;;;;17.27;48.83;101350.63;5095643;28;1026;-50
2022/12/17 22:57:12;;;;;;;;;;;;;;;18.53;48.78;101366.34;5095051;28;1103;-50
2022/12/17 22:59:38;;;;;;;;;;;;;;;17.47;49.77;101362.84;5093838;28;2605;-52
2022/12/17 23:02:03;;;;;;;;;;;;;;;18.60;49.28;101383.44;5095579;28;1070;-52
2022/12/17 23:04:29;;;;;;;;;;;;;;;18.42;49.66;101382.00;5095478;28;1129;-50
2022/12/17 23:06:54;;;;;;;;;;;;;;;17.62;49.83;101390.44;5095753;28;1169;-51
2022/12/17 23:09:19;;;;;;;;;;;;;;;17.38;48.67;101404.59;5096081;28;1153;-52
2022/12/17 23:11:45;;;;;;;;;;;;;;;17.19;47.85;101395.91;5096080;28;1056;-51
2022/12/17 23:14:11;;;;;;;;;;;;;;;18.18;49.39;101391.88;5095221;28;1003;-49
2022/12/17 23:16:37;;;;;;;;;;;;;;;17.44;49.10;101391.69;5095995;28;1014;-52
2022/12/17 23:19:03;;;;;;;;;;;;;;;17.14;48.31;101395.03;5095982;28;1914;-51
2022/12/17 23:21:29;;;;;;;;;;;;;;;17.44;48.81;101402.69;5095825;28;1200;-52
2022/12/17 23:23:54;;;;;;;;;;;;;;;17.50;49.40;101403.56;5096271;28;1095;-53
2022/12/17 23:26:23;;;;;;;;;;;;;;;17.19;49.08;101403.34;5095025;28;1058;-51
2022/12/17 23:29:07;;;;;;;;;;;;;;;18.62;49.05;101416.22;5092457;28;2709;-49
2022/12/17 23:31:34;;;;;;;;;;;;;;;17.49;49.39;101418.41;5095442;28;1185;-53
2022/12/17 23:33:59;;;;;;;;;;;;;;;17.10;48.72;101424.97;5096173;28;1169;-50
2022/12/17 23:36:25;;;;;;;;;;;;;;;17.89;49.62;101434.38;5095413;28;1078;-51
2022/12/17 23:38:50;;;;;;;;;;;;;;;17.22;49.31;101422.91;5088120;28;1917;-52
2022/12/17 23:41:17;;;;;;;;;;;;;;;18.65;49.05;101426.72;5092817;28;1169;-49
2022/12/17 23:43:42;;;;;;;;;;;;;;;17.99;49.82;101428.09;5095131;28;1090;-51
2022/12/17 23:46:08;;;;;;;;;;;;;;;17.47;49.22;101434.34;5094527;28;1016;-48
2022/12/17 23:48:37;;;;;;;;;;;;;;;17.32;47.97;101466.13;5095728;28;1015;-51
2022/12/17 23:51:04;;;;;;;;;;;;;;;17.47;48.57;101470.09;5093997;28;1015;-50
2022/12/17 23:53:30;;;;;;;;;;;;;;;17.79;49.47;101476.41;5095304;28;1061;-47
2022/12/17 23:56:02;;;;;;;;;;;;;;;17.34;48.60;101474.13;5095191;28;1054;-47
2022/12/17 23:58:27;;;;;;;;;;;;;;;18.00;49.60;101479.28;5085837;28;2410;-47
